sensor_id;sensor_type;location;lat;lon;timestamp;P1;durP1;ratioP1;P2;durP2;ratioP2
11000;SDS011;5553;48.506;8.870;2023-03-12T00:00:32;8.73;;;5.70;;
11000;SDS011;5553;48.506;8.870;2023-03-12T00:03:00;9.00;;;5.47;;
11000;SDS011;5553;48.506;8.870;2023-03-12T00:05:31;11.40;;;5.23;;
11000;SDS011;5553;48.506;8.870;2023-03-12T00:08:00;7.73;;;5.40;;
11000;SDS011;5553;48.506;8.870;2023-03-12T00:10:28;9.00;;;5.00;;
11000;SDS011;5553;48.506;8.870;2023-03-12T00:15:15;23.83;;;6.57;;
11000;SDS011;5553;48.506;8.870;2023-03-12T00:17:44;9.67;;;5.17;;
11000;SDS011;5553;48.506;8.870;2023-03-12T00:20:12;10.47;;;7.10;;
11000;SDS011;5553;48.506;8.870;2023-03-12T00:22:43;13.97;;;7.27;;
11000;SDS011;5553;48.506;8.870;2023-03-12T00:25:13;9.40;;;6.30;;
11000;SDS011;5553;48.506;8.870;2023-03-12T00:27:45;11.13;;;6.27;;
11000;SDS011;5553;48.506;8.870;2023-03-12T00:30:13;8.50;;;5.10;;
11000;SDS011;5553;48.506;8.870;2023-03-12T00:32:42;10.40;;;5.13;;
11000;SDS011;5553;48.506;8.870;2023-03-12T00:35:10;8.23;;;4.90;;
11000;SDS011;5553;48.506;8.870;2023-03-12T00:37:38;8.43;;;4.40;;
11000;SDS011;5553;48.506;8.870;2023-03-12T00:40:10;11.60;;;5.37;;
11000;SDS011;5553;48.506;8.870;2023-03-12T00:42:39;7.07;;;4.03;;
11000;SDS011;5553;48.506;8.870;2023-03-12T00:45:07;9.03;;;5.60;;
11000;SDS011;5553;48.506;8.870;2023-03-12T00:47:36;4.27;;;3.80;;
11000;SDS011;5553;48.506;8.870;2023-03-12T00:50:05;5.53;;;4.10;;
11000;SDS011;5553;48.506;8.870;2023-03-12T00:52:34;8.17;;;3.77;;
11000;SDS011;5553;48.506;8.870;2023-03-12T00:55:02;7.57;;;3.90;;
11000;SDS011;5553;48.506;8.870;2023-03-12T00:57:33;6.40;;;4.50;;
11000;SDS011;5553;48.506;8.870;2023-03-12T01:00:02;6.57;;;3.80;;
11000;SDS011;5553;48.506;8.870;2023-03-12T01:02:34;5.57;;;4.00;;
11000;SDS011;5553;48.506;8.870;2023-03-12T01:05:02;5.77;;;3.57;;
11000;SDS011;5553;48.506;8.870;2023-03-12T01:07:31;7.43;;;4.30;;
11000;SDS011;5553;48.506;8.870;2023-03-12T01:09:59;8.43;;;4.43;;
11000;SDS011;5553;48.506;8.870;2023-03-12T01:12:28;9.60;;;5.27;;
11000;SDS011;5553;48.506;8.870;2023-03-12T01:14:59;10.30;;;5.90;;
11000;SDS011;5553;48.506;8.870;2023-03-12T01:17:27;7.70;;;4.67;;
11000;SDS011;5553;48.506;8.870;2023-03-12T01:19:55;9.03;;;5.07;;
11000;SDS011;5553;48.506;8.870;2023-03-12T01:22:23;6.27;;;3.90;;
11000;SDS011;5553;48.506;8.870;2023-03-12T01:24:52;10.27;;;5.17;;
11000;SDS011;5553;48.506;8.870;2023-03-12T01:27:20;7.00;;;5.20;;
11000;SDS011;5553;48.506;8.870;2023-03-12T01:29:48;6.87;;;4.50;;
11000;SDS011;5553;48.506;8.870;2023-03-12T01:32:19;10.07;;;5.23;;
11000;SDS011;5553;48.506;8.870;2023-03-12T01:34:47;11.07;;;5.70;;
11000;SDS011;5553;48.506;8.870;2023-03-12T01:37:16;7.77;;;4.43;;
11000;SDS011;5553;48.506;8.870;2023-03-12T01:39:44;5.43;;;4.50;;
11000;SDS011;5553;48.506;8.870;2023-03-12T01:42:12;5.20;;;4.30;;
11000;SDS011;5553;48.506;8.870;2023-03-12T01:44:48;7.03;;;4.63;;
11000;SDS011;5553;48.506;8.870;2023-03-12T01:47:20;6.10;;;4.50;;
11000;SDS011;5553;48.506;8.870;2023-03-12T01:49:49;8.73;;;5.20;;
11000;SDS011;5553;48.506;8.870;2023-03-12T01:52:20;8.47;;;4.57;;
11000;SDS011;5553;48.506;8.870;2023-03-12T01:54:52;7.73;;;4.40;;
11000;SDS011;5553;48.506;8.870;2023-03-12T01:57:25;9.67;;;5.57;;
11000;SDS011;5553;48.506;8.870;2023-03-12T01:59:58;7.10;;;4.57;;
11000;SDS011;5553;48.506;8.870;2023-03-12T02:02:32;7.57;;;5.03;;
11000;SDS011;5553;48.506;8.870;2023-03-12T02:05:04;8.80;;;4.63;;
11000;SDS011;5553;48.506;8.870;2023-03-12T02:07:38;9.03;;;5.00;;
11000;SDS011;5553;48.506;8.870;2023-03-12T02:10:06;5.97;;;4.00;;
11000;SDS011;5553;48.506;8.870;2023-03-12T02:12:35;8.80;;;4.63;;
11000;SDS011;5553;48.506;8.870;2023-03-12T02:15:04;7.73;;;4.93;;
11000;SDS011;5553;48.506;8.870;2023-03-12T02:17:37;7.47;;;4.67;;
11000;SDS011;5553;48.506;8.870;2023-03-12T02:20:08;9.03;;;4.43;;
11000;SDS011;5553;48.506;8.870;2023-03-12T02:22:48;7.87;;;4.30;;
11000;SDS011;5553;48.506;8.870;2023-03-12T02:25:28;8.13;;;4.20;;
11000;SDS011;5553;48.506;8.870;2023-03-12T02:28:03;12.50;;;4.40;;
11000;SDS011;5553;48.506;8.870;2023-03-12T02:30:35;10.80;;;4.87;;
11000;SDS011;5553;48.506;8.870;2023-03-12T02:33:07;8.87;;;4.03;;
11000;SDS011;5553;48.506;8.870;2023-03-12T02:35:35;9.63;;;4.83;;
11000;SDS011;5553;48.506;8.870;2023-03-12T02:41:05;8.53;;;4.03;;
11000;SDS011;5553;48.506;8.870;2023-03-12T02:43:38;9.63;;;5.33;;
11000;SDS011;5553;48.506;8.870;2023-03-12T02:46:07;7.33;;;4.33;;
11000;SDS011;5553;48.506;8.870;2023-03-12T02:48:36;7.83;;;4.87;;
11000;SDS011;5553;48.506;8.870;2023-03-12T02:51:04;6.43;;;4.97;;
11000;SDS011;5553;48.506;8.870;2023-03-12T02:53:33;8.27;;;5.27;;
11000;SDS011;5553;48.506;8.870;2023-03-12T02:56:01;7.90;;;4.97;;
11000;SDS011;5553;48.506;8.870;2023-03-12T02:58:32;10.70;;;5.00;;
11000;SDS011;5553;48.506;8.870;2023-03-12T03:01:00;7.03;;;5.10;;
11000;SDS011;5553;48.506;8.870;2023-03-12T03:03:28;6.50;;;5.50;;
11000;SDS011;5553;48.506;8.870;2023-03-12T03:05:56;13.07;;;5.70;;
11000;SDS011;5553;48.506;8.870;2023-03-12T03:08:25;10.47;;;5.03;;
11000;SDS011;5553;48.506;8.870;2023-03-12T03:10:53;12.97;;;6.17;;
11000;SDS011;5553;48.506;8.870;2023-03-12T03:13:21;10.40;;;5.00;;
11000;SDS011;5553;48.506;8.870;2023-03-12T03:15:52;5.53;;;4.57;;
11000;SDS011;5553;48.506;8.870;2023-03-12T03:18:21;9.10;;;5.03;;
11000;SDS011;5553;48.506;8.870;2023-03-12T03:20:53;8.67;;;4.90;;
11000;SDS011;5553;48.506;8.870;2023-03-12T03:23:22;7.93;;;4.53;;
11000;SDS011;5553;48.506;8.870;2023-03-12T03:25:51;8.30;;;5.20;;
11000;SDS011;5553;48.506;8.870;2023-03-12T03:28:20;7.03;;;5.27;;
11000;SDS011;5553;48.506;8.870;2023-03-12T03:30:53;9.30;;;5.67;;
11000;SDS011;5553;48.506;8.870;2023-03-12T03:33:25;11.67;;;6.40;;
11000;SDS011;5553;48.506;8.870;2023-03-12T03:35:53;11.37;;;7.33;;
11000;SDS011;5553;48.506;8.870;2023-03-12T03:38:23;23.13;;;9.40;;
11000;SDS011;5553;48.506;8.870;2023-03-12T03:40:52;11.53;;;6.80;;
11000;SDS011;5553;48.506;8.870;2023-03-12T03:43:21;9.40;;;6.00;;
11000;SDS011;5553;48.506;8.870;2023-03-12T03:45:57;9.37;;;5.93;;
11000;SDS011;5553;48.506;8.870;2023-03-12T03:48:26;8.40;;;5.53;;
11000;SDS011;5553;48.506;8.870;2023-03-12T03:50:58;20.07;;;5.63;;
11000;SDS011;5553;48.506;8.870;2023-03-12T03:53:26;8.87;;;6.00;;
11000;SDS011;5553;48.506;8.870;2023-03-12T03:55:55;9.40;;;5.70;;
11000;SDS011;5553;48.506;8.870;2023-03-12T03:58:23;6.60;;;5.60;;
11000;SDS011;5553;48.506;8.870;2023-03-12T04:00:52;8.30;;;5.03;;
11000;SDS011;5553;48.506;8.870;2023-03-12T04:03:23;9.30;;;5.70;;
11000;SDS011;5553;48.506;8.870;2023-03-12T04:05:55;7.90;;;5.20;;
11000;SDS011;5553;48.506;8.870;2023-03-12T04:08:25;6.27;;;4.80;;
11000;SDS011;5553;48.506;8.870;2023-03-12T04:10:54;9.90;;;5.60;;
11000;SDS011;5553;48.506;8.870;2023-03-12T04:13:22;5.80;;;4.77;;
11000;SDS011;5553;48.506;8.870;2023-03-12T04:15:51;8.20;;;5.93;;
11000;SDS011;5553;48.506;8.870;2023-03-12T04:18:20;10.13;;;5.70;;
11000;SDS011;5553;48.506;8.870;2023-03-12T04:20:51;14.70;;;6.40;;
11000;SDS011;5553;48.506;8.870;2023-03-12T04:23:19;7.00;;;5.30;;
11000;SDS011;5553;48.506;8.870;2023-03-12T04:25:47;7.93;;;5.30;;
11000;SDS011;5553;48.506;8.870;2023-03-12T04:28:15;11.03;;;6.23;;
11000;SDS011;5553;48.506;8.870;2023-03-12T04:30:44;9.00;;;5.60;;
11000;SDS011;5553;48.506;8.870;2023-03-12T04:33:12;8.70;;;5.43;;
11000;SDS011;5553;48.506;8.870;2023-03-12T04:35:45;5.30;;;4.40;;
11000;SDS011;5553;48.506;8.870;2023-03-12T04:38:20;7.90;;;6.13;;
11000;SDS011;5553;48.506;8.870;2023-03-12T04:40:55;7.37;;;4.70;;
11000;SDS011;5553;48.506;8.870;2023-03-12T04:43:24;9.97;;;5.30;;
11000;SDS011;5553;48.506;8.870;2023-03-12T04:45:53;7.87;;;5.67;;
11000;SDS011;5553;48.506;8.870;2023-03-12T04:48:22;7.73;;;5.33;;
11000;SDS011;5553;48.506;8.870;2023-03-12T04:50:53;7.40;;;5.17;;
11000;SDS011;5553;48.506;8.870;2023-03-12T04:53:21;9.70;;;5.40;;
11000;SDS011;5553;48.506;8.870;2023-03-12T04:55:50;8.20;;;5.30;;
11000;SDS011;5553;48.506;8.870;2023-03-12T04:58:19;7.20;;;5.37;;
11000;SDS011;5553;48.506;8.870;2023-03-12T05:00:48;12.23;;;6.40;;
11000;SDS011;5553;48.506;8.870;2023-03-12T05:03:17;9.67;;;6.20;;
11000;SDS011;5553;48.506;8.870;2023-03-12T05:05:46;6.43;;;5.17;;
11000;SDS011;5553;48.506;8.870;2023-03-12T05:08:16;9.20;;;5.83;;
11000;SDS011;5553;48.506;8.870;2023-03-12T05:10:45;9.93;;;5.67;;
11000;SDS011;5553;48.506;8.870;2023-03-12T05:13:13;13.07;;;6.90;;
11000;SDS011;5553;48.506;8.870;2023-03-12T05:15:42;11.33;;;6.70;;
11000;SDS011;5553;48.506;8.870;2023-03-12T05:18:11;8.87;;;4.90;;
11000;SDS011;5553;48.506;8.870;2023-03-12T05:20:39;9.50;;;5.53;;
11000;SDS011;5553;48.506;8.870;2023-03-12T05:23:08;9.10;;;5.53;;
11000;SDS011;5553;48.506;8.870;2023-03-12T05:25:40;8.30;;;5.67;;
11000;SDS011;5553;48.506;8.870;2023-03-12T05:28:08;10.83;;;5.27;;
11000;SDS011;5553;48.506;8.870;2023-03-12T05:30:37;10.00;;;5.10;;
11000;SDS011;5553;48.506;8.870;2023-03-12T05:33:06;8.97;;;4.43;;
11000;SDS011;5553;48.506;8.870;2023-03-12T05:35:34;8.60;;;4.63;;
11000;SDS011;5553;48.506;8.870;2023-03-12T05:38:03;11.40;;;5.73;;
11000;SDS011;5553;48.506;8.870;2023-03-12T05:40:31;6.20;;;4.80;;
11000;SDS011;5553;48.506;8.870;2023-03-12T05:43:02;9.67;;;5.77;;
11000;SDS011;5553;48.506;8.870;2023-03-12T05:45:31;7.13;;;4.73;;
11000;SDS011;5553;48.506;8.870;2023-03-12T05:47:59;10.90;;;5.67;;
11000;SDS011;5553;48.506;8.870;2023-03-12T05:50:27;7.30;;;5.10;;
11000;SDS011;5553;48.506;8.870;2023-03-12T05:52:56;8.23;;;4.90;;
11000;SDS011;5553;48.506;8.870;2023-03-12T05:55:24;10.77;;;6.77;;
11000;SDS011;5553;48.506;8.870;2023-03-12T05:57:52;8.53;;;6.40;;
11000;SDS011;5553;48.506;8.870;2023-03-12T06:00:23;12.83;;;5.90;;
11000;SDS011;5553;48.506;8.870;2023-03-12T06:02:52;10.33;;;6.03;;
11000;SDS011;5553;48.506;8.870;2023-03-12T06:05:20;10.07;;;5.93;;
11000;SDS011;5553;48.506;8.870;2023-03-12T06:07:48;8.70;;;6.10;;
11000;SDS011;5553;48.506;8.870;2023-03-12T06:10:17;9.97;;;6.03;;
11000;SDS011;5553;48.506;8.870;2023-03-12T06:12:45;12.73;;;7.03;;
11000;SDS011;5553;48.506;8.870;2023-03-12T06:15:14;9.93;;;8.93;;
11000;SDS011;5553;48.506;8.870;2023-03-12T06:17:45;13.20;;;9.03;;
11000;SDS011;5553;48.506;8.870;2023-03-12T06:20:13;11.67;;;6.37;;
11000;SDS011;5553;48.506;8.870;2023-03-12T06:22:42;8.50;;;5.70;;
11000;SDS011;5553;48.506;8.870;2023-03-12T06:25:10;14.67;;;5.87;;
11000;SDS011;5553;48.506;8.870;2023-03-12T06:27:38;12.47;;;7.00;;
11000;SDS011;5553;48.506;8.870;2023-03-12T06:30:07;9.67;;;5.70;;
11000;SDS011;5553;48.506;8.870;2023-03-12T06:32:36;12.03;;;6.87;;
11000;SDS011;5553;48.506;8.870;2023-03-12T06:35:07;7.80;;;6.33;;
11000;SDS011;5553;48.506;8.870;2023-03-12T06:37:36;8.00;;;5.83;;
11000;SDS011;5553;48.506;8.870;2023-03-12T06:40:05;9.73;;;5.70;;
11000;SDS011;5553;48.506;8.870;2023-03-12T06:42:35;11.33;;;6.63;;
11000;SDS011;5553;48.506;8.870;2023-03-12T06:45:03;9.47;;;6.40;;
11000;SDS011;5553;48.506;8.870;2023-03-12T06:47:32;10.53;;;6.40;;
11000;SDS011;5553;48.506;8.870;2023-03-12T06:50:01;12.33;;;6.97;;
11000;SDS011;5553;48.506;8.870;2023-03-12T06:52:32;9.13;;;5.67;;
11000;SDS011;5553;48.506;8.870;2023-03-12T06:55:00;10.80;;;6.57;;
11000;SDS011;5553;48.506;8.870;2023-03-12T06:57:29;9.80;;;5.70;;
11000;SDS011;5553;48.506;8.870;2023-03-12T06:59:57;11.60;;;6.40;;
11000;SDS011;5553;48.506;8.870;2023-03-12T07:02:25;6.83;;;5.67;;
11000;SDS011;5553;48.506;8.870;2023-03-12T07:04:54;9.23;;;6.40;;
11000;SDS011;5553;48.506;8.870;2023-03-12T07:07:22;9.70;;;6.27;;
11000;SDS011;5553;48.506;8.870;2023-03-12T07:09:53;11.27;;;6.30;;
11000;SDS011;5553;48.506;8.870;2023-03-12T07:12:21;13.53;;;5.63;;
11000;SDS011;5553;48.506;8.870;2023-03-12T07:14:49;9.77;;;6.60;;
11000;SDS011;5553;48.506;8.870;2023-03-12T07:17:17;11.03;;;6.70;;
11000;SDS011;5553;48.506;8.870;2023-03-12T07:19:47;10.70;;;5.97;;
11000;SDS011;5553;48.506;8.870;2023-03-12T07:22:15;10.37;;;7.00;;
11000;SDS011;5553;48.506;8.870;2023-03-12T07:24:43;14.60;;;7.43;;
11000;SDS011;5553;48.506;8.870;2023-03-12T07:27:14;17.23;;;12.20;;
11000;SDS011;5553;48.506;8.870;2023-03-12T07:29:42;13.77;;;8.40;;
11000;SDS011;5553;48.506;8.870;2023-03-12T07:32:11;11.23;;;7.37;;
11000;SDS011;5553;48.506;8.870;2023-03-12T07:34:39;11.70;;;7.07;;
11000;SDS011;5553;48.506;8.870;2023-03-12T07:37:07;37.83;;;18.90;;
11000;SDS011;5553;48.506;8.870;2023-03-12T07:39:36;21.23;;;12.93;;
11000;SDS011;5553;48.506;8.870;2023-03-12T07:42:04;10.60;;;7.70;;
11000;SDS011;5553;48.506;8.870;2023-03-12T07:44:35;10.70;;;7.23;;
11000;SDS011;5553;48.506;8.870;2023-03-12T07:47:04;12.33;;;6.40;;
11000;SDS011;5553;48.506;8.870;2023-03-12T07:49:32;11.90;;;6.90;;
11000;SDS011;5553;48.506;8.870;2023-03-12T07:52:00;9.70;;;6.03;;
11000;SDS011;5553;48.506;8.870;2023-03-12T07:54:29;8.50;;;5.97;;
11000;SDS011;5553;48.506;8.870;2023-03-12T07:56:57;8.53;;;6.00;;
11000;SDS011;5553;48.506;8.870;2023-03-12T07:59:25;8.93;;;6.00;;
11000;SDS011;5553;48.506;8.870;2023-03-12T08:01:56;9.93;;;6.57;;
11000;SDS011;5553;48.506;8.870;2023-03-12T08:04:24;10.80;;;6.20;;
11000;SDS011;5553;48.506;8.870;2023-03-12T08:06:53;11.00;;;6.50;;
11000;SDS011;5553;48.506;8.870;2023-03-12T08:09:21;10.57;;;7.30;;
11000;SDS011;5553;48.506;8.870;2023-03-12T08:11:49;18.63;;;8.33;;
11000;SDS011;5553;48.506;8.870;2023-03-12T08:14:18;12.17;;;7.97;;
11000;SDS011;5553;48.506;8.870;2023-03-12T08:16:46;11.57;;;8.20;;
11000;SDS011;5553;48.506;8.870;2023-03-12T08:19:17;17.10;;;7.63;;
11000;SDS011;5553;48.506;8.870;2023-03-12T08:21:45;11.27;;;7.50;;
11000;SDS011;5553;48.506;8.870;2023-03-12T08:24:13;11.67;;;7.57;;
11000;SDS011;5553;48.506;8.870;2023-03-12T08:26:42;11.47;;;7.20;;
11000;SDS011;5553;48.506;8.870;2023-03-12T08:29:10;10.37;;;7.30;;
11000;SDS011;5553;48.506;8.870;2023-03-12T08:31:38;11.23;;;7.37;;
11000;SDS011;5553;48.506;8.870;2023-03-12T08:34:07;9.57;;;7.23;;
11000;SDS011;5553;48.506;8.870;2023-03-12T08:36:37;10.67;;;6.60;;
11000;SDS011;5553;48.506;8.870;2023-03-12T08:39:06;11.17;;;7.93;;
11000;SDS011;5553;48.506;8.870;2023-03-12T08:41:34;14.43;;;7.43;;
11000;SDS011;5553;48.506;8.870;2023-03-12T08:44:02;11.37;;;6.93;;
11000;SDS011;5553;48.506;8.870;2023-03-12T08:46:30;9.80;;;6.40;;
11000;SDS011;5553;48.506;8.870;2023-03-12T08:48:59;9.93;;;6.90;;
11000;SDS011;5553;48.506;8.870;2023-03-12T08:51:27;7.87;;;6.03;;
11000;SDS011;5553;48.506;8.870;2023-03-12T08:53:58;11.83;;;7.57;;
11000;SDS011;5553;48.506;8.870;2023-03-12T08:56:26;50.10;;;27.50;;
11000;SDS011;5553;48.506;8.870;2023-03-12T08:58:54;35.07;;;18.73;;
11000;SDS011;5553;48.506;8.870;2023-03-12T09:01:22;10.23;;;5.97;;
11000;SDS011;5553;48.506;8.870;2023-03-12T09:03:51;9.90;;;6.17;;
11000;SDS011;5553;48.506;8.870;2023-03-12T09:06:19;8.77;;;5.57;;
11000;SDS011;5553;48.506;8.870;2023-03-12T09:08:48;9.20;;;5.20;;
11000;SDS011;5553;48.506;8.870;2023-03-12T09:11:18;7.47;;;4.80;;
11000;SDS011;5553;48.506;8.870;2023-03-12T09:13:47;7.17;;;5.20;;
11000;SDS011;5553;48.506;8.870;2023-03-12T09:16:15;8.63;;;5.30;;
11000;SDS011;5553;48.506;8.870;2023-03-12T09:18:43;8.60;;;4.50;;
11000;SDS011;5553;48.506;8.870;2023-03-12T09:21:12;5.47;;;3.47;;
11000;SDS011;5553;48.506;8.870;2023-03-12T09:23:40;4.43;;;3.00;;
11000;SDS011;5553;48.506;8.870;2023-03-12T09:26:08;2.50;;;2.20;;
11000;SDS011;5553;48.506;8.870;2023-03-12T09:28:40;4.77;;;2.77;;
11000;SDS011;5553;48.506;8.870;2023-03-12T09:31:09;4.30;;;2.50;;
11000;SDS011;5553;48.506;8.870;2023-03-12T09:33:37;2.70;;;2.33;;
11000;SDS011;5553;48.506;8.870;2023-03-12T09:36:06;4.77;;;2.23;;
11000;SDS011;5553;48.506;8.870;2023-03-12T09:38:34;3.43;;;2.03;;
11000;SDS011;5553;48.506;8.870;2023-03-12T09:41:03;4.50;;;2.07;;
11000;SDS011;5553;48.506;8.870;2023-03-12T09:43:33;3.00;;;1.80;;
11000;SDS011;5553;48.506;8.870;2023-03-12T09:46:10;4.27;;;1.90;;
11000;SDS011;5553;48.506;8.870;2023-03-12T09:48:42;2.33;;;1.70;;
11000;SDS011;5553;48.506;8.870;2023-03-12T09:51:13;1.90;;;1.70;;
11000;SDS011;5553;48.506;8.870;2023-03-12T09:53:47;2.10;;;1.60;;
11000;SDS011;5553;48.506;8.870;2023-03-12T09:56:21;3.23;;;1.77;;
11000;SDS011;5553;48.506;8.870;2023-03-12T09:58:50;1.80;;;1.20;;
11000;SDS011;5553;48.506;8.870;2023-03-12T10:01:33;3.83;;;1.10;;
11000;SDS011;5553;48.506;8.870;2023-03-12T10:04:06;1.47;;;1.33;;
11000;SDS011;5553;48.506;8.870;2023-03-12T10:06:56;1.90;;;1.43;;
11000;SDS011;5553;48.506;8.870;2023-03-12T10:09:44;1.23;;;1.03;;
11000;SDS011;5553;48.506;8.870;2023-03-12T10:12:28;0.87;;;0.83;;
11000;SDS011;5553;48.506;8.870;2023-03-12T10:15:11;1.97;;;1.23;;
11000;SDS011;5553;48.506;8.870;2023-03-12T10:17:51;1.37;;;0.60;;
11000;SDS011;5553;48.506;8.870;2023-03-12T10:20:41;4.10;;;0.97;;
11000;SDS011;5553;48.506;8.870;2023-03-12T10:23:19;0.97;;;0.60;;
11000;SDS011;5553;48.506;8.870;2023-03-12T10:25:55;3.80;;;1.10;;
11000;SDS011;5553;48.506;8.870;2023-03-12T10:28:28;1.23;;;1.00;;
11000;SDS011;5553;48.506;8.870;2023-03-12T10:31:02;4.60;;;0.90;;
11000;SDS011;5553;48.506;8.870;2023-03-12T10:33:40;3.13;;;0.90;;
11000;SDS011;5553;48.506;8.870;2023-03-12T10:36:12;2.60;;;1.07;;
11000;SDS011;5553;48.506;8.870;2023-03-12T10:38:44;1.40;;;0.60;;
11000;SDS011;5553;48.506;8.870;2023-03-12T10:41:14;3.63;;;1.20;;
11000;SDS011;5553;48.506;8.870;2023-03-12T10:43:49;7.83;;;1.53;;
11000;SDS011;5553;48.506;8.870;2023-03-12T10:46:31;4.77;;;1.27;;
11000;SDS011;5553;48.506;8.870;2023-03-12T10:49:26;3.23;;;1.20;;
11000;SDS011;5553;48.506;8.870;2023-03-12T10:52:00;2.53;;;1.00;;
11000;SDS011;5553;48.506;8.870;2023-03-12T10:54:33;4.27;;;1.10;;
11000;SDS011;5553;48.506;8.870;2023-03-12T10:57:04;2.97;;;1.13;;
11000;SDS011;5553;48.506;8.870;2023-03-12T10:59:34;3.90;;;1.47;;
11000;SDS011;5553;48.506;8.870;2023-03-12T11:02:19;10.23;;;1.50;;
11000;SDS011;5553;48.506;8.870;2023-03-12T11:04:59;3.50;;;1.00;;
11000;SDS011;5553;48.506;8.870;2023-03-12T11:07:29;7.23;;;1.50;;
11000;SDS011;5553;48.506;8.870;2023-03-12T11:10:11;3.87;;;1.40;;
11000;SDS011;5553;48.506;8.870;2023-03-12T11:12:50;3.97;;;0.97;;
11000;SDS011;5553;48.506;8.870;2023-03-12T11:15:21;2.70;;;0.80;;
11000;SDS011;5553;48.506;8.870;2023-03-12T11:17:53;5.07;;;1.10;;
11000;SDS011;5553;48.506;8.870;2023-03-12T11:20:48;2.30;;;0.90;;
11000;SDS011;5553;48.506;8.870;2023-03-12T11:23:19;7.80;;;1.30;;
11000;SDS011;5553;48.506;8.870;2023-03-12T11:25:59;2.87;;;1.37;;
11000;SDS011;5553;48.506;8.870;2023-03-12T11:28:31;2.80;;;1.23;;
11000;SDS011;5553;48.506;8.870;2023-03-12T11:31:04;2.23;;;1.40;;
11000;SDS011;5553;48.506;8.870;2023-03-12T11:33:36;5.73;;;2.80;;
11000;SDS011;5553;48.506;8.870;2023-03-12T11:36:12;3.70;;;1.73;;
11000;SDS011;5553;48.506;8.870;2023-03-12T11:38:57;4.47;;;1.47;;
11000;SDS011;5553;48.506;8.870;2023-03-12T11:41:41;5.80;;;1.13;;
11000;SDS011;5553;48.506;8.870;2023-03-12T11:44:22;3.60;;;1.10;;
11000;SDS011;5553;48.506;8.870;2023-03-12T11:47:05;3.80;;;1.37;;
11000;SDS011;5553;48.506;8.870;2023-03-12T11:49:50;2.97;;;1.30;;
11000;SDS011;5553;48.506;8.870;2023-03-12T11:52:34;6.07;;;1.40;;
11000;SDS011;5553;48.506;8.870;2023-03-12T11:55:21;3.00;;;1.50;;
11000;SDS011;5553;48.506;8.870;2023-03-12T11:58:14;5.70;;;2.30;;
11000;SDS011;5553;48.506;8.870;2023-03-12T12:00:53;4.33;;;1.10;;
11000;SDS011;5553;48.506;8.870;2023-03-12T12:06:27;3.33;;;1.00;;
11000;SDS011;5553;48.506;8.870;2023-03-12T12:09:12;4.90;;;1.50;;
11000;SDS011;5553;48.506;8.870;2023-03-12T12:11:54;3.00;;;1.23;;
11000;SDS011;5553;48.506;8.870;2023-03-12T12:14:37;1.23;;;1.13;;
11000;SDS011;5553;48.506;8.870;2023-03-12T12:17:20;2.90;;;1.00;;
11000;SDS011;5553;48.506;8.870;2023-03-12T12:20:03;2.20;;;0.87;;
11000;SDS011;5553;48.506;8.870;2023-03-12T12:22:52;7.87;;;1.00;;
11000;SDS011;5553;48.506;8.870;2023-03-12T12:25:35;2.30;;;1.00;;
11000;SDS011;5553;48.506;8.870;2023-03-12T12:28:21;5.20;;;1.10;;
11000;SDS011;5553;48.506;8.870;2023-03-12T12:31:05;5.23;;;1.30;;
11000;SDS011;5553;48.506;8.870;2023-03-12T12:33:44;5.07;;;1.30;;
11000;SDS011;5553;48.506;8.870;2023-03-12T12:36:34;2.20;;;0.93;;
11000;SDS011;5553;48.506;8.870;2023-03-12T12:39:04;5.13;;;1.27;;
11000;SDS011;5553;48.506;8.870;2023-03-12T12:41:43;4.30;;;1.27;;
11000;SDS011;5553;48.506;8.870;2023-03-12T12:44:15;4.47;;;1.07;;
11000;SDS011;5553;48.506;8.870;2023-03-12T12:46:48;6.60;;;1.13;;
11000;SDS011;5553;48.506;8.870;2023-03-12T12:49:21;4.37;;;1.57;;
11000;SDS011;5553;48.506;8.870;2023-03-12T12:51:54;3.50;;;1.30;;
11000;SDS011;5553;48.506;8.870;2023-03-12T12:54:26;6.27;;;1.40;;
11000;SDS011;5553;48.506;8.870;2023-03-12T12:57:02;3.50;;;0.97;;
11000;SDS011;5553;48.506;8.870;2023-03-12T12:59:37;2.13;;;0.80;;
11000;SDS011;5553;48.506;8.870;2023-03-12T13:02:13;3.80;;;1.10;;
11000;SDS011;5553;48.506;8.870;2023-03-12T13:04:44;5.73;;;1.30;;
11000;SDS011;5553;48.506;8.870;2023-03-12T13:07:29;2.50;;;1.27;;
11000;SDS011;5553;48.506;8.870;2023-03-12T13:10:04;2.40;;;0.73;;
11000;SDS011;5553;48.506;8.870;2023-03-12T13:12:40;3.90;;;1.30;;
11000;SDS011;5553;48.506;8.870;2023-03-12T13:18:05;5.13;;;2.20;;
11000;SDS011;5553;48.506;8.870;2023-03-12T13:23:34;2.40;;;1.10;;
11000;SDS011;5553;48.506;8.870;2023-03-12T13:26:14;2.23;;;1.00;;
11000;SDS011;5553;48.506;8.870;2023-03-12T13:31:49;5.20;;;0.70;;
11000;SDS011;5553;48.506;8.870;2023-03-12T13:37:22;1.00;;;0.70;;
11000;SDS011;5553;48.506;8.870;2023-03-12T13:39:59;1.77;;;1.17;;
11000;SDS011;5553;48.506;8.870;2023-03-12T13:42:35;4.03;;;1.20;;
11000;SDS011;5553;48.506;8.870;2023-03-12T13:47:57;3.70;;;1.17;;
11000;SDS011;5553;48.506;8.870;2023-03-12T13:50:27;2.97;;;1.07;;
11000;SDS011;5553;48.506;8.870;2023-03-12T13:53:00;2.10;;;1.30;;
11000;SDS011;5553;48.506;8.870;2023-03-12T13:55:31;2.07;;;1.17;;
11000;SDS011;5553;48.506;8.870;2023-03-12T13:58:05;3.97;;;1.07;;
11000;SDS011;5553;48.506;8.870;2023-03-12T14:00:38;4.13;;;1.23;;
11000;SDS011;5553;48.506;8.870;2023-03-12T14:03:13;3.13;;;1.33;;
11000;SDS011;5553;48.506;8.870;2023-03-12T14:05:47;5.60;;;1.10;;
11000;SDS011;5553;48.506;8.870;2023-03-12T14:08:37;3.40;;;1.00;;
11000;SDS011;5553;48.506;8.870;2023-03-12T14:11:21;7.93;;;2.07;;
11000;SDS011;5553;48.506;8.870;2023-03-12T14:14:03;2.10;;;0.87;;
11000;SDS011;5553;48.506;8.870;2023-03-12T14:16:51;2.30;;;1.30;;
11000;SDS011;5553;48.506;8.870;2023-03-12T14:19:23;1.10;;;1.00;;
11000;SDS011;5553;48.506;8.870;2023-03-12T14:21:53;3.47;;;0.90;;
11000;SDS011;5553;48.506;8.870;2023-03-12T14:24:24;1.87;;;1.30;;
11000;SDS011;5553;48.506;8.870;2023-03-12T14:26:54;4.60;;;1.77;;
11000;SDS011;5553;48.506;8.870;2023-03-12T14:29:25;1.23;;;0.60;;
11000;SDS011;5553;48.506;8.870;2023-03-12T14:31:59;5.43;;;1.07;;
11000;SDS011;5553;48.506;8.870;2023-03-12T14:34:32;3.17;;;1.57;;
11000;SDS011;5553;48.506;8.870;2023-03-12T14:37:08;7.30;;;1.60;;
11000;SDS011;5553;48.506;8.870;2023-03-12T14:39:42;2.40;;;1.30;;
11000;SDS011;5553;48.506;8.870;2023-03-12T14:42:17;4.13;;;1.43;;
11000;SDS011;5553;48.506;8.870;2023-03-12T14:44:53;4.50;;;1.30;;
11000;SDS011;5553;48.506;8.870;2023-03-12T14:47:28;5.87;;;1.00;;
11000;SDS011;5553;48.506;8.870;2023-03-12T14:49:56;6.67;;;1.23;;
11000;SDS011;5553;48.506;8.870;2023-03-12T14:52:26;4.33;;;1.33;;
11000;SDS011;5553;48.506;8.870;2023-03-12T14:54:56;5.47;;;1.30;;
11000;SDS011;5553;48.506;8.870;2023-03-12T14:57:26;3.80;;;1.10;;
11000;SDS011;5553;48.506;8.870;2023-03-12T14:59:55;3.70;;;1.10;;
11000;SDS011;5553;48.506;8.870;2023-03-12T15:02:25;3.40;;;0.90;;
11000;SDS011;5553;48.506;8.870;2023-03-12T15:04:58;2.43;;;0.90;;
11000;SDS011;5553;48.506;8.870;2023-03-12T15:07:28;4.20;;;1.57;;
11000;SDS011;5553;48.506;8.870;2023-03-12T15:09:58;4.20;;;1.13;;
11000;SDS011;5553;48.506;8.870;2023-03-12T15:12:30;2.87;;;0.87;;
11000;SDS011;5553;48.506;8.870;2023-03-12T15:15:02;1.93;;;0.70;;
11000;SDS011;5553;48.506;8.870;2023-03-12T15:17:36;5.03;;;1.17;;
11000;SDS011;5553;48.506;8.870;2023-03-12T15:20:05;1.83;;;1.10;;
11000;SDS011;5553;48.506;8.870;2023-03-12T15:22:35;5.23;;;1.07;;
11000;SDS011;5553;48.506;8.870;2023-03-12T15:25:13;2.97;;;1.30;;
11000;SDS011;5553;48.506;8.870;2023-03-12T15:27:49;2.80;;;1.10;;
11000;SDS011;5553;48.506;8.870;2023-03-12T15:30:29;3.70;;;1.00;;
11000;SDS011;5553;48.506;8.870;2023-03-12T15:33:10;1.10;;;1.00;;
11000;SDS011;5553;48.506;8.870;2023-03-12T15:35:57;5.10;;;1.20;;
11000;SDS011;5553;48.506;8.870;2023-03-12T15:38:27;3.50;;;1.40;;
11000;SDS011;5553;48.506;8.870;2023-03-12T15:40:57;4.07;;;1.40;;
11000;SDS011;5553;48.506;8.870;2023-03-12T15:43:30;1.50;;;1.10;;
11000;SDS011;5553;48.506;8.870;2023-03-12T15:45:59;3.50;;;1.37;;
11000;SDS011;5553;48.506;8.870;2023-03-12T15:48:32;7.70;;;1.10;;